createdAt,value
2022-11-24T00:00:35.284Z,6.94
2022-11-24T00:01:35.311Z,6.95
2022-11-24T00:02:35.374Z,6.94
2022-11-24T00:03:35.505Z,6.97
2022-11-24T00:04:35.562Z,6.95
2022-11-24T00:05:35.232Z,6.98
2022-11-24T00:06:35.268Z,7.01
2022-11-24T00:08:55.097Z,7.05
2022-11-24T00:09:56.179Z,7.07
2022-11-24T00:10:56.090Z,7.13
2022-11-24T00:11:56.062Z,7.13
2022-11-24T00:12:56.050Z,7.13
2022-11-24T00:13:56.046Z,7.09
2022-11-24T00:14:56.042Z,7.13
2022-11-24T00:15:56.005Z,7.15
2022-11-24T00:16:56.169Z,7.15
2022-11-24T00:17:55.997Z,7.19
2022-11-24T00:18:55.975Z,7.17
2022-11-24T00:19:55.951Z,7.16
2022-11-24T00:20:55.939Z,7.19
2022-11-24T00:21:56.390Z,7.22
2022-11-24T00:22:55.929Z,7.23
2022-11-24T00:23:55.925Z,7.24
2022-11-24T00:24:55.887Z,7.26
2022-11-24T00:25:55.871Z,7.26
2022-11-24T00:26:55.876Z,7.31
2022-11-24T00:27:55.850Z,7.31
2022-11-24T00:28:55.830Z,7.32
2022-11-24T00:29:55.831Z,7.32
2022-11-24T00:30:55.844Z,7.37
2022-11-24T00:31:55.800Z,7.34
2022-11-24T00:32:56.088Z,7.31
2022-11-24T00:33:55.803Z,7.31
2022-11-24T00:34:55.755Z,7.31
2022-11-24T00:35:55.740Z,7.31
2022-11-24T00:36:55.745Z,7.31
2022-11-24T00:37:55.716Z,7.31
2022-11-24T00:38:55.726Z,7.32
2022-11-24T00:39:55.686Z,7.35
2022-11-24T00:40:55.683Z,7.35
2022-11-24T00:41:55.683Z,7.31
2022-11-24T00:42:55.962Z,7.31
2022-11-24T00:43:55.641Z,7.35
2022-11-24T00:44:55.643Z,7.45
2022-11-24T00:45:55.727Z,7.42
2022-11-24T00:46:55.736Z,7.49
2022-11-24T00:47:55.601Z,7.49
2022-11-24T00:48:55.600Z,7.49
2022-11-24T00:49:55.612Z,7.49
2022-11-24T00:50:55.556Z,7.50
2022-11-24T00:51:55.567Z,7.50
2022-11-24T00:52:55.874Z,7.52
2022-11-24T00:53:55.501Z,7.50
2022-11-24T00:54:55.500Z,7.50
2022-11-24T00:55:55.463Z,7.49
2022-11-24T00:56:55.455Z,7.50
2022-11-24T00:57:55.456Z,7.47
2022-11-24T00:58:55.447Z,7.47
2022-11-24T00:59:56.248Z,7.47
2022-11-24T01:00:55.547Z,7.45
2022-11-24T01:01:55.423Z,7.47
2022-11-24T01:02:55.484Z,7.47
2022-11-24T01:03:55.391Z,7.42
2022-11-24T01:04:55.359Z,7.41
2022-11-24T01:05:55.331Z,7.37
2022-11-24T01:06:55.499Z,7.41
2022-11-24T01:07:55.895Z,7.40
2022-11-24T01:08:55.644Z,7.40
2022-11-24T01:09:55.307Z,7.40
2022-11-24T01:10:55.273Z,7.44
2022-11-24T01:11:55.271Z,7.45
2022-11-24T01:12:55.420Z,7.44
2022-11-24T01:13:55.242Z,7.42
2022-11-24T01:14:55.217Z,7.45
2022-11-24T01:15:55.225Z,7.45
2022-11-24T01:16:55.242Z,7.44
2022-11-24T01:17:55.187Z,7.44
2022-11-24T01:18:55.175Z,7.41
2022-11-24T01:19:55.165Z,7.40
2022-11-24T01:20:55.409Z,7.40
2022-11-24T01:21:55.404Z,7.38
2022-11-24T01:22:55.143Z,7.37
2022-11-24T01:23:55.101Z,7.37
2022-11-24T01:24:55.129Z,7.32
2022-11-24T01:25:55.212Z,7.35
2022-11-24T01:26:55.323Z,7.32
2022-11-24T01:27:55.053Z,7.32
2022-11-24T01:28:55.043Z,7.32
2022-11-24T01:29:55.097Z,7.34
2022-11-24T01:30:55.071Z,7.37
2022-11-24T01:31:55.264Z,7.41
2022-11-24T01:32:55.244Z,7.42
2022-11-24T01:33:55.277Z,7.45
2022-11-24T01:34:54.954Z,7.45
2022-11-24T01:35:54.973Z,7.44
2022-11-24T01:36:54.953Z,7.42
2022-11-24T01:37:55.414Z,7.42
2022-11-24T01:38:54.912Z,7.42
2022-11-24T01:39:55.141Z,7.41
2022-11-24T01:40:54.875Z,7.41
2022-11-24T01:41:54.881Z,7.41
2022-11-24T01:42:54.885Z,7.40
2022-11-24T01:43:54.854Z,7.40
2022-11-24T01:44:54.851Z,7.42
2022-11-24T01:45:55.547Z,7.47
2022-11-24T01:46:55.036Z,7.50
2022-11-24T01:47:55.118Z,7.50
2022-11-24T01:48:55.091Z,7.53
2022-11-24T01:49:54.798Z,7.55
2022-11-24T01:50:54.757Z,7.60
2022-11-24T01:51:55.652Z,7.60
2022-11-24T01:52:54.749Z,7.58
2022-11-24T01:53:54.708Z,7.56
2022-11-24T01:54:54.704Z,7.56
2022-11-24T01:55:54.671Z,7.55
2022-11-24T01:56:54.679Z,7.56
2022-11-24T01:57:54.676Z,7.56
2022-11-24T01:58:54.639Z,7.58
2022-11-24T01:59:54.979Z,7.56
2022-11-24T02:00:54.778Z,7.55
2022-11-24T02:01:54.644Z,7.55
2022-11-24T02:02:54.624Z,7.55
2022-11-24T02:03:54.616Z,7.55
2022-11-24T02:04:54.684Z,7.56
2022-11-24T02:05:54.544Z,7.55
2022-11-24T02:06:54.522Z,7.56
2022-11-24T02:07:54.607Z,7.56
2022-11-24T02:08:54.535Z,7.53
2022-11-24T02:09:55.052Z,7.52
2022-11-24T02:10:54.475Z,7.59
2022-11-24T02:11:54.465Z,7.60
2022-11-24T02:12:54.449Z,7.59
2022-11-24T02:13:54.461Z,7.58
2022-11-24T02:14:54.442Z,7.56
2022-11-24T02:15:54.480Z,7.53
2022-11-24T02:16:54.473Z,7.58
2022-11-24T02:17:54.377Z,7.58
2022-11-24T02:18:54.398Z,7.56
2022-11-24T02:19:54.355Z,7.55
2022-11-24T02:20:54.343Z,7.53
2022-11-24T02:21:54.358Z,7.50
2022-11-24T02:22:54.310Z,7.49
2022-11-24T02:23:54.330Z,7.47
2022-11-24T02:24:54.294Z,7.44
2022-11-24T02:25:54.303Z,7.40
2022-11-24T02:26:54.271Z,7.38
2022-11-24T02:27:54.455Z,7.38
2022-11-24T02:28:54.244Z,7.38
2022-11-24T02:29:54.214Z,7.40
2022-11-24T02:30:54.267Z,7.45
2022-11-24T02:31:54.192Z,7.45
2022-11-24T02:32:54.183Z,7.49
2022-11-24T02:33:54.204Z,7.44
2022-11-24T03:00:34.343Z,7.50
2022-11-24T03:01:32.657Z,7.50
2022-11-24T03:02:32.652Z,7.50
2022-11-24T03:03:32.625Z,7.55
2022-11-24T03:04:33.011Z,7.55
2022-11-24T03:05:32.600Z,7.55
2022-11-24T03:06:31.545Z,7.56
2022-11-24T03:07:32.624Z,7.59
2022-11-24T03:08:32.519Z,7.56
2022-11-24T03:09:32.520Z,7.59
2022-11-24T03:10:32.507Z,7.62
2022-11-24T03:11:32.499Z,7.62
2022-11-24T03:12:32.478Z,7.62
2022-11-24T03:13:32.526Z,7.63
2022-11-24T03:14:32.905Z,7.63
2022-11-24T03:15:32.484Z,7.60
2022-11-24T03:16:32.436Z,7.59
2022-11-24T03:17:32.422Z,7.56
2022-11-24T03:18:32.392Z,7.60
2022-11-24T03:19:32.392Z,7.58
2022-11-24T03:20:32.378Z,7.58
2022-11-24T03:21:31.347Z,7.58
2022-11-24T03:22:32.363Z,7.55
2022-11-24T03:23:32.337Z,7.53
2022-11-24T03:24:31.495Z,7.52
2022-11-24T03:25:32.336Z,7.49
2022-11-24T04:47:59.653Z,7.94
2022-11-24T04:49:00.651Z,7.94
2022-11-24T05:09:47.936Z,8.17
2022-11-24T05:10:00.719Z,8.15
2022-11-24T05:17:26.873Z,8.28
2022-11-24T05:17:59.708Z,8.30
2022-11-24T05:18:59.746Z,8.35
2022-11-24T05:24:31.076Z,8.45
2022-11-24T05:31:22.854Z,8.58
2022-11-24T05:32:23.825Z,8.62
2022-11-24T05:36:54.576Z,8.73
2022-11-24T05:37:53.807Z,8.78
2022-11-24T05:38:53.796Z,8.76
2022-11-24T05:39:53.777Z,8.78
2022-11-24T05:40:53.808Z,8.81
2022-11-24T05:41:53.756Z,8.79
2022-11-24T05:42:53.755Z,8.83
2022-11-24T05:43:53.738Z,8.83
2022-11-24T05:44:53.713Z,8.86
2022-11-24T05:45:53.757Z,8.83
2022-11-24T05:46:53.789Z,8.87
2022-11-24T05:47:53.704Z,8.86
2022-11-24T05:48:53.674Z,8.90
2022-11-24T05:49:53.658Z,8.86
2022-11-24T05:50:53.650Z,8.86
2022-11-24T05:51:53.621Z,8.86
2022-11-24T05:52:53.614Z,8.88
2022-11-24T05:53:53.612Z,8.86
2022-11-24T05:54:53.599Z,8.87
2022-11-24T05:55:53.596Z,8.87
2022-11-24T05:56:53.558Z,8.84
2022-11-24T05:57:53.558Z,8.87
2022-11-24T05:58:53.543Z,8.87
2022-11-24T05:59:53.518Z,8.88
2022-11-24T06:00:53.532Z,8.86
2022-11-24T06:01:53.591Z,8.87
2022-11-24T06:02:53.573Z,8.88
2022-11-24T06:03:53.476Z,8.88
2022-11-24T06:04:53.462Z,8.87
2022-11-24T06:05:53.433Z,8.84
2022-11-24T06:06:53.438Z,8.86
2022-11-24T06:07:53.543Z,8.84
2022-11-24T06:08:53.415Z,8.83
2022-11-24T06:09:53.382Z,8.81
2022-11-24T06:10:53.392Z,8.79
2022-11-24T06:11:53.609Z,8.75
2022-11-24T06:12:53.361Z,8.75
2022-11-24T06:13:53.447Z,8.75
2022-11-24T06:14:53.348Z,8.69
2022-11-24T06:15:53.345Z,8.68
2022-11-24T06:16:53.350Z,8.65
2022-11-24T06:17:53.330Z,8.63
2022-11-24T06:18:53.288Z,8.62
2022-11-24T06:19:53.260Z,8.58
2022-11-24T06:21:09.811Z,8.55
2022-11-24T06:21:53.240Z,8.50
2022-11-24T06:22:53.219Z,8.47
2022-11-24T06:23:53.208Z,8.45
2022-11-24T06:24:53.192Z,8.42
2022-11-24T06:25:53.192Z,8.44
2022-11-24T06:26:53.158Z,8.42
2022-11-24T06:27:53.222Z,8.40
2022-11-24T06:28:53.150Z,8.40
2022-11-24T06:29:53.118Z,8.40
2022-11-24T06:30:53.115Z,8.42
2022-11-24T06:31:53.224Z,8.42
2022-11-24T06:32:53.098Z,8.45
2022-11-24T06:33:53.065Z,8.48
2022-11-24T06:34:53.075Z,8.48
2022-11-24T06:35:53.061Z,8.48
2022-11-24T06:36:54.120Z,8.50
2022-11-24T06:37:53.027Z,8.51
2022-11-24T06:38:52.999Z,8.50
2022-11-24T06:39:52.991Z,8.54
2022-11-24T06:40:52.972Z,8.54
2022-11-24T06:41:52.952Z,8.54
2022-11-24T06:42:52.972Z,8.54
2022-11-24T06:43:52.940Z,8.54
2022-11-24T06:44:52.927Z,8.57
2022-11-24T06:45:52.946Z,8.58
2022-11-24T06:46:52.888Z,8.55
2022-11-24T06:47:52.894Z,8.55
2022-11-24T06:48:52.880Z,8.55
2022-11-24T06:49:52.847Z,8.60
2022-11-24T06:50:52.836Z,8.58
2022-11-24T06:51:52.876Z,8.58
2022-11-24T06:52:52.825Z,8.57
2022-11-24T06:53:52.830Z,8.58
2022-11-24T06:54:52.783Z,8.58
2022-11-24T06:55:52.766Z,8.57
2022-11-24T06:56:52.788Z,8.58
2022-11-24T06:57:52.758Z,8.60
2022-11-24T06:58:52.787Z,8.57
2022-11-24T06:59:52.714Z,8.62
2022-11-24T07:00:52.746Z,8.60
2022-11-24T07:01:52.735Z,8.62
2022-11-24T07:02:52.742Z,8.60
2022-11-24T07:03:52.666Z,8.63
2022-11-24T07:04:52.664Z,8.62
2022-11-24T07:05:52.650Z,8.60
2022-11-24T07:06:52.624Z,8.65
2022-11-24T07:07:52.696Z,8.63
2022-11-24T07:08:52.618Z,8.65
2022-11-24T07:09:53.562Z,8.65
2022-11-24T07:10:52.570Z,8.68
2022-11-24T07:11:52.553Z,8.66
2022-11-24T07:12:52.558Z,8.68
2022-11-24T07:13:58.146Z,8.69
2022-11-24T07:14:52.516Z,8.71
2022-11-24T07:15:52.548Z,8.69
2022-11-24T07:16:53.514Z,8.72
2022-11-24T07:17:52.496Z,8.72
2022-11-24T07:18:52.473Z,8.69
2022-11-24T07:19:52.440Z,8.71
2022-11-24T07:20:52.436Z,8.73
2022-11-24T07:21:52.419Z,8.75
2022-11-24T07:22:52.421Z,8.76
2022-11-24T07:23:52.401Z,8.76
2022-11-24T07:24:52.391Z,8.78
2022-11-24T07:25:52.451Z,8.79
2022-11-24T07:26:52.378Z,8.79
2022-11-24T07:27:52.364Z,8.79
2022-11-24T07:28:52.360Z,8.76
2022-11-24T07:29:51.311Z,8.81
2022-11-24T07:30:52.310Z,8.81
2022-11-24T07:31:52.387Z,8.81
2022-11-24T07:32:52.289Z,8.83
2022-11-24T07:33:52.324Z,8.83
2022-11-24T07:34:52.264Z,8.86
2022-11-24T07:35:52.241Z,8.84
2022-11-24T07:38:13.604Z,8.86
2022-11-24T07:39:14.623Z,8.88
2022-11-24T07:40:14.555Z,8.88
2022-11-24T07:41:14.541Z,8.90
2022-11-24T07:42:14.578Z,8.90
2022-11-24T07:43:19.824Z,8.93
2022-11-24T07:44:14.521Z,8.91
2022-11-24T07:45:15.680Z,8.93
2022-11-24T07:46:14.587Z,8.93
2022-11-24T07:47:14.469Z,8.94
2022-11-24T07:48:14.444Z,8.96
2022-11-24T07:49:14.446Z,8.97
2022-11-24T07:50:14.454Z,8.99
2022-11-24T07:51:14.435Z,9.01
2022-11-24T07:52:14.408Z,9.02
2022-11-24T07:53:14.409Z,9.02
2022-11-24T07:54:14.396Z,9.10
2022-11-24T07:55:14.427Z,9.10
2022-11-24T07:56:14.403Z,9.13
2022-11-24T07:57:14.391Z,9.15
2022-11-24T07:58:14.308Z,9.20
2022-11-24T07:59:16.397Z,9.18
2022-11-24T08:00:14.294Z,9.20
2022-11-24T08:01:14.389Z,9.21
2022-11-24T08:02:14.315Z,9.25
2022-11-24T08:03:14.334Z,9.27
2022-11-24T08:04:14.306Z,9.30
2022-11-24T08:05:14.218Z,9.32
2022-11-24T08:06:36.293Z,9.32
2022-11-24T08:07:14.251Z,9.34
2022-11-24T08:08:14.180Z,9.34
2022-11-24T08:09:14.169Z,9.34
2022-11-24T08:10:14.149Z,9.34
2022-11-24T08:11:14.206Z,9.38
2022-11-24T08:12:14.133Z,9.40
2022-11-24T08:13:14.192Z,9.40
2022-11-24T08:14:14.108Z,9.42
2022-11-24T08:15:14.075Z,9.46
2022-11-24T08:16:14.148Z,9.45
2022-11-24T08:17:14.984Z,9.45
2022-11-24T08:18:14.070Z,9.46
2022-11-24T08:19:14.112Z,9.46
2022-11-24T08:20:14.027Z,9.46
2022-11-24T08:21:14.020Z,9.48
2022-11-24T08:22:13.993Z,9.48
2022-11-24T08:23:13.986Z,9.49
2022-11-24T08:24:13.976Z,9.49
2022-11-24T08:25:13.948Z,9.49
2022-11-24T08:26:13.962Z,9.49
2022-11-24T08:27:13.921Z,9.50
2022-11-24T08:28:13.900Z,9.50
2022-11-24T08:29:13.906Z,9.52
2022-11-24T08:30:13.883Z,9.53
2022-11-24T08:31:13.890Z,9.53
2022-11-24T08:32:18.862Z,9.56
2022-11-24T08:33:13.848Z,9.57
2022-11-24T08:34:13.835Z,9.58
2022-11-24T08:35:14.512Z,9.60
2022-11-24T08:45:20.893Z,9.71
2022-11-24T08:46:38.412Z,9.71
2022-11-24T08:47:17.303Z,9.75
2022-11-24T08:48:38.358Z,9.75
2022-11-24T08:49:17.283Z,9.79
2022-11-24T08:50:17.248Z,9.83
2022-11-24T08:51:17.241Z,9.83
2022-11-24T08:52:17.246Z,9.86
2022-11-24T08:53:17.212Z,9.83
2022-11-24T08:54:23.535Z,9.83
2022-11-24T08:55:17.181Z,9.83
2022-11-24T08:56:17.216Z,9.86
2022-11-24T08:57:21.607Z,9.88
2022-11-24T08:58:17.151Z,9.88
2022-11-24T08:59:19.323Z,9.91
2022-11-24T09:00:17.195Z,9.91
2022-11-24T09:01:17.203Z,9.93
2022-11-24T09:03:32.289Z,9.96
2022-11-24T09:04:30.204Z,9.97
2022-11-24T09:05:51.114Z,9.97
2022-11-24T09:09:09.342Z,10.01
2022-11-24T09:10:10.089Z,9.99
2022-11-24T09:11:10.079Z,10.00
2022-11-24T09:12:14.558Z,9.97
2022-11-24T09:13:10.099Z,9.96
2022-11-24T09:14:10.074Z,9.94
2022-11-24T09:15:10.022Z,9.94
2022-11-24T09:17:58.702Z,9.96
2022-11-24T09:18:29.934Z,9.99
2022-11-24T09:19:24.487Z,10.01
2022-11-24T09:20:24.495Z,9.99
2022-11-24T09:23:04.717Z,9.96
2022-11-24T09:24:36.752Z,9.94
2022-11-24T09:25:05.682Z,9.91
2022-11-24T09:26:05.698Z,9.89
2022-11-24T09:27:26.659Z,9.91
2022-11-24T09:29:20.900Z,9.89
2022-11-24T09:30:17.581Z,9.93
2022-11-24T09:33:08.323Z,9.96
2022-11-24T09:34:07.191Z,9.93
2022-11-24T09:35:21.447Z,9.91
2022-11-24T10:47:31.611Z,9.73
2022-11-24T10:48:29.972Z,9.76
2022-11-24T10:49:29.939Z,9.78
2022-11-24T10:50:31.011Z,9.82
2022-11-24T10:51:29.951Z,9.88
2022-11-24T10:52:29.956Z,9.93
2022-11-24T10:53:29.901Z,9.96
2022-11-24T10:54:29.892Z,9.94
2022-11-24T10:55:29.882Z,9.94
2022-11-24T10:56:29.866Z,9.91
2022-11-24T10:57:29.844Z,9.91
2022-11-24T10:58:34.426Z,9.96
2022-11-24T10:59:29.836Z,9.93
2022-11-24T11:00:29.812Z,9.94
2022-11-24T11:01:29.851Z,9.99
2022-11-24T11:02:30.115Z,10.01
2022-11-24T11:03:29.764Z,10.07
2022-11-24T11:04:29.777Z,10.09
2022-11-24T11:05:29.742Z,10.09
2022-11-24T11:06:29.748Z,10.09
2022-11-24T11:07:29.819Z,10.12
2022-11-24T11:08:29.722Z,10.07
2022-11-24T11:09:29.698Z,10.09
2022-11-24T11:10:29.683Z,10.10
2022-11-24T11:11:29.834Z,10.15
2022-11-24T11:12:43.978Z,10.17
2022-11-24T11:13:29.649Z,10.21
2022-11-24T11:14:29.624Z,10.21
2022-11-24T11:15:29.788Z,10.19
2022-11-24T11:16:29.654Z,10.19
2022-11-24T11:17:29.576Z,10.25
2022-11-24T11:18:29.564Z,10.26
2022-11-24T11:20:29.584Z,10.34
2022-11-24T11:21:29.554Z,10.34
2022-11-24T11:22:29.514Z,10.34
2022-11-24T11:23:29.603Z,10.33
2022-11-24T11:24:29.921Z,10.36
2022-11-24T11:25:29.834Z,10.37
2022-11-24T11:26:30.656Z,10.39
2022-11-24T11:27:29.745Z,10.43
2022-11-24T11:28:31.075Z,10.44
2022-11-24T11:31:29.441Z,10.59
2022-11-24T11:34:30.456Z,10.66
2022-11-24T11:35:29.343Z,10.70
2022-11-24T11:36:29.333Z,10.71
2022-11-24T11:37:29.336Z,10.70
2022-11-24T11:38:29.317Z,10.71
2022-11-24T11:39:29.280Z,10.74
2022-11-24T11:40:29.315Z,10.74
2022-11-24T11:41:29.315Z,10.80
2022-11-24T11:43:00.658Z,10.89
2022-11-24T11:43:29.233Z,10.94
2022-11-24T11:44:29.248Z,10.95
2022-11-24T11:45:29.265Z,10.98
2022-11-24T11:46:29.328Z,10.94
2022-11-24T11:47:29.170Z,10.95
2022-11-24T11:48:31.433Z,10.96
2022-11-24T11:49:29.150Z,11.01
2022-11-24T11:50:29.170Z,11.01
2022-11-24T11:51:29.256Z,11.03
2022-11-24T11:52:29.131Z,11.09
2022-11-24T11:53:29.110Z,11.11
2022-11-24T11:54:29.089Z,11.14
2022-11-24T11:55:29.063Z,11.14
2022-11-24T11:56:29.075Z,11.17
2022-11-24T11:57:29.037Z,11.16
2022-11-24T11:58:29.029Z,11.20
2022-11-24T11:59:29.009Z,11.20
2022-11-24T12:00:29.034Z,11.27
2022-11-24T12:01:28.976Z,11.24
2022-11-24T12:02:29.168Z,11.16
2022-11-24T12:03:29.034Z,11.14
2022-11-24T12:04:29.032Z,11.10
2022-11-24T12:05:28.940Z,11.07
2022-11-24T12:06:28.944Z,11.01
2022-11-24T12:07:30.293Z,10.96
2022-11-24T12:08:29.160Z,10.95
2022-11-24T12:09:30.621Z,10.96
2022-11-24T12:11:46.936Z,10.92
2022-11-24T12:11:56.279Z,10.92
2022-11-24T12:12:53.922Z,10.95
2022-11-24T12:13:53.916Z,10.99
2022-11-24T12:14:53.897Z,11.02
2022-11-24T12:15:53.907Z,11.02
2022-11-24T12:16:53.877Z,11.03
2022-11-24T12:17:53.850Z,11.11
2022-11-24T12:18:58.189Z,11.10
2022-11-24T12:19:53.826Z,11.10
2022-11-24T12:20:53.831Z,11.11
2022-11-24T12:21:53.829Z,11.16
2022-11-24T12:22:53.871Z,11.14
2022-11-24T12:23:53.775Z,11.11
2022-11-24T12:24:53.769Z,11.09
2022-11-24T12:25:53.756Z,11.11
2022-11-24T12:26:53.754Z,11.17
2022-11-24T12:27:53.758Z,11.27
2022-11-24T12:28:53.716Z,11.38
2022-11-24T12:29:53.706Z,11.47
2022-11-24T12:30:53.755Z,11.52
2022-11-24T12:31:53.713Z,11.54
2022-11-24T12:32:53.667Z,11.62
2022-11-24T12:33:57.970Z,11.64
2022-11-24T12:34:53.739Z,11.65
2022-11-24T12:35:53.618Z,11.61
2022-11-24T12:36:53.625Z,11.56
2022-11-24T12:37:53.600Z,11.52
2022-11-24T12:38:53.574Z,11.47
2022-11-24T12:39:53.713Z,11.43
2022-11-24T12:41:06.459Z,11.43
2022-11-24T12:41:53.569Z,11.38
2022-11-24T12:42:53.534Z,11.35
2022-11-24T12:43:53.511Z,11.36
2022-11-24T12:44:53.518Z,11.36
2022-11-24T12:45:53.479Z,11.29
2022-11-24T12:46:53.528Z,11.34
2022-11-24T12:47:53.469Z,11.32
2022-11-24T12:48:53.490Z,11.29
2022-11-24T12:49:53.436Z,11.35
2022-11-24T12:50:53.441Z,11.34
2022-11-24T12:51:53.414Z,11.35
2022-11-24T12:52:58.679Z,11.36
2022-11-24T12:53:53.386Z,11.36
2022-11-24T12:54:53.484Z,11.38
2022-11-24T12:55:53.373Z,11.38
2022-11-24T12:56:53.359Z,11.36
2022-11-24T12:57:53.322Z,11.36
2022-11-24T12:58:53.339Z,11.36
2022-11-24T12:59:53.293Z,11.35
2022-11-24T13:00:53.309Z,11.36
2022-11-24T13:01:53.423Z,11.35
2022-11-24T13:02:53.375Z,11.36
2022-11-24T13:03:53.242Z,11.39
2022-11-24T13:04:53.233Z,11.38
2022-11-24T13:05:53.252Z,11.38
2022-11-24T13:06:53.221Z,11.36
2022-11-24T13:07:53.241Z,11.38
2022-11-24T13:08:53.205Z,11.39
2022-11-24T13:09:53.195Z,11.43
2022-11-24T13:10:56.369Z,11.44
2022-11-24T13:11:53.144Z,11.47
2022-11-24T13:12:53.165Z,11.49
2022-11-24T13:13:53.117Z,11.52
2022-11-24T13:14:53.102Z,11.59
2022-11-24T13:16:07.157Z,11.61
2022-11-24T13:17:27.565Z,11.67
2022-11-24T13:18:07.184Z,11.70
2022-11-24T13:18:53.120Z,11.75
2022-11-24T13:19:53.025Z,11.85
2022-11-24T13:20:53.031Z,11.89
2022-11-24T13:21:53.017Z,11.90
2022-11-24T13:22:52.999Z,11.97
2022-11-24T13:23:53.030Z,12.05
2022-11-24T13:24:52.973Z,12.11
2022-11-24T13:25:52.951Z,12.12
2022-11-24T13:26:52.950Z,12.12
2022-11-24T13:27:52.949Z,12.08
2022-11-24T13:29:03.577Z,12.02
2022-11-24T13:29:53.035Z,11.96
2022-11-24T13:30:53.121Z,11.87
2022-11-24T13:31:52.892Z,11.86
2022-11-24T13:33:03.445Z,11.80
2022-11-24T13:33:54.080Z,11.72
2022-11-24T13:35:15.193Z,11.70
2022-11-24T13:36:16.260Z,11.70
2022-11-24T13:37:31.244Z,11.64
2022-11-24T13:37:52.795Z,11.67
2022-11-24T13:41:44.914Z,11.54
2022-11-24T13:42:43.116Z,11.53
2022-11-24T13:43:22.778Z,11.54
2022-11-24T13:44:22.766Z,11.56
2022-11-24T13:45:44.887Z,11.52
2022-11-24T13:46:22.738Z,11.52
2022-11-24T13:47:22.745Z,11.50
2022-11-24T13:48:22.974Z,11.50
2022-11-24T13:49:22.766Z,11.49
2022-11-24T13:50:22.654Z,11.49
2022-11-24T13:51:22.704Z,11.47
2022-11-24T13:58:22.325Z,11.38
2022-11-24T13:59:21.655Z,11.38
2022-11-24T14:00:21.643Z,11.34
2022-11-24T14:01:21.709Z,11.34
2022-11-24T14:02:22.744Z,11.31
2022-11-24T14:03:21.705Z,11.29
2022-11-24T14:04:31.134Z,11.29
2022-11-24T14:05:21.592Z,11.31
2022-11-24T14:06:21.560Z,11.24
2022-11-24T14:07:21.597Z,11.21
2022-11-24T14:08:21.542Z,11.21
2022-11-24T14:09:21.522Z,11.19
2022-11-24T14:10:21.497Z,11.19
2022-11-24T14:11:21.541Z,11.17
2022-11-24T14:12:21.544Z,11.13
2022-11-24T14:13:21.477Z,11.11
2022-11-24T14:14:21.460Z,11.10
2022-11-24T14:15:21.460Z,11.07
2022-11-24T14:16:21.471Z,11.06
2022-11-24T14:17:21.404Z,11.06
2022-11-24T14:18:21.424Z,10.98
2022-11-24T14:19:21.379Z,10.98
2022-11-24T14:20:21.391Z,10.95
2022-11-24T14:21:21.423Z,10.94
2022-11-24T14:22:21.434Z,10.94
2022-11-24T14:23:21.357Z,10.95
2022-11-24T14:24:21.320Z,10.91
2022-11-24T14:25:21.321Z,10.88
2022-11-24T14:26:21.295Z,10.84
2022-11-24T14:27:21.285Z,10.83
2022-11-24T14:28:21.350Z,10.83
2022-11-24T14:29:21.255Z,10.76
2022-11-24T14:30:21.252Z,10.77
2022-11-24T14:31:21.315Z,10.74
2022-11-24T14:32:21.207Z,10.70
2022-11-24T14:33:21.200Z,10.66
2022-11-24T14:34:21.182Z,10.63
2022-11-24T14:35:21.375Z,10.62
2022-11-24T14:36:21.165Z,10.59
2022-11-24T14:37:21.176Z,10.58
2022-11-24T14:38:21.152Z,10.53
2022-11-24T14:39:21.122Z,10.51
2022-11-24T14:40:21.122Z,10.46
2022-11-24T14:41:21.092Z,10.44
2022-11-24T14:42:21.102Z,10.43
2022-11-24T14:43:21.067Z,10.39
2022-11-24T14:44:21.053Z,10.36
2022-11-24T14:45:21.046Z,10.36
2022-11-24T14:46:21.119Z,10.33
2022-11-24T14:47:23.487Z,10.30
2022-11-24T14:48:21.034Z,10.26
2022-11-24T14:49:20.999Z,10.22
2022-11-24T14:50:21.033Z,10.21
2022-11-24T14:51:20.961Z,10.18
2022-11-24T14:52:20.962Z,10.15
2022-11-24T14:53:25.894Z,10.17
2022-11-24T14:54:20.942Z,10.12
2022-11-24T14:55:23.215Z,10.10
2022-11-24T14:56:20.889Z,10.06
2022-11-24T14:57:20.904Z,10.03
2022-11-24T14:58:20.859Z,9.96
2022-11-24T14:59:20.860Z,9.96
2022-11-24T15:00:20.885Z,9.91
2022-11-24T15:01:20.946Z,9.85
2022-11-24T15:02:20.890Z,9.82
2022-11-24T15:03:20.787Z,9.78
2022-11-24T15:04:46.269Z,9.76
2022-11-24T15:05:20.781Z,9.71
2022-11-24T15:06:20.779Z,9.70
2022-11-24T15:07:20.790Z,9.64
2022-11-24T15:08:20.726Z,9.61
2022-11-24T15:09:20.729Z,9.57
2022-11-24T15:10:20.702Z,9.53
2022-11-24T15:11:20.721Z,9.48
2022-11-24T15:12:20.677Z,9.45
2022-11-24T15:13:20.670Z,9.40
2022-11-24T15:14:20.651Z,9.35
2022-11-24T15:16:36.630Z,9.27
2022-11-24T15:17:37.573Z,9.24
2022-11-24T15:18:37.623Z,9.20
2022-11-24T15:19:37.527Z,9.15
2022-11-24T15:22:06.516Z,9.06
2022-11-24T15:22:50.692Z,9.02
2022-11-24T15:23:50.699Z,8.97
2022-11-24T15:24:50.654Z,8.94
2022-11-24T15:25:50.642Z,8.90
2022-11-24T15:26:50.635Z,8.86
2022-11-24T15:27:50.660Z,8.83
2022-11-24T15:28:50.632Z,8.79
2022-11-24T15:29:50.604Z,8.76
2022-11-24T15:30:50.575Z,8.72
2022-11-24T15:31:52.860Z,8.68
2022-11-24T15:32:50.564Z,8.63
2022-11-24T15:33:50.572Z,8.62
2022-11-24T15:34:50.533Z,8.55
2022-11-24T15:35:50.529Z,8.57
2022-11-24T15:36:50.503Z,8.53
2022-11-24T15:37:50.504Z,8.51
2022-11-24T15:38:50.482Z,8.50
2022-11-24T15:39:50.497Z,8.40
2022-11-24T15:40:50.484Z,8.36
2022-11-24T15:41:50.486Z,8.30
2022-11-24T15:42:50.432Z,8.28
2022-11-24T15:43:50.407Z,8.25
2022-11-24T15:44:50.402Z,8.22
2022-11-24T15:45:50.407Z,8.14
2022-11-24T15:46:50.393Z,8.12
2022-11-24T15:47:50.371Z,8.07
2022-11-24T15:48:50.343Z,8.02
2022-11-24T15:49:50.343Z,8.00
2022-11-24T15:50:50.318Z,7.94
2022-11-24T15:51:50.319Z,7.90
2022-11-24T15:52:50.303Z,7.87
2022-11-24T15:53:51.145Z,7.87
2022-11-24T15:54:50.348Z,7.84
2022-11-24T15:55:50.261Z,7.84
2022-11-24T15:56:50.321Z,7.79
2022-11-24T15:57:50.245Z,7.78
2022-11-24T15:58:50.207Z,7.77
2022-11-24T15:59:50.197Z,7.74
2022-11-24T16:00:50.359Z,7.71
2022-11-24T16:01:50.343Z,7.63
2022-11-24T16:02:50.172Z,7.60
2022-11-24T16:03:50.159Z,7.58
2022-11-24T16:04:50.173Z,7.55
2022-11-24T16:05:50.118Z,7.49
2022-11-24T16:06:50.105Z,7.45
2022-11-24T16:07:50.175Z,7.41
2022-11-24T16:08:50.079Z,7.38
2022-11-24T16:09:50.175Z,7.34
2022-11-24T16:10:50.052Z,7.32
2022-11-24T16:11:50.051Z,7.27
2022-11-24T16:12:50.032Z,7.23
2022-11-24T16:13:53.060Z,7.20
2022-11-24T16:14:50.000Z,7.19
2022-11-24T16:15:50.115Z,7.15
2022-11-24T16:16:50.034Z,7.09
2022-11-24T16:17:50.003Z,7.05
2022-11-24T16:18:49.940Z,7.04
2022-11-24T16:19:59.803Z,7.01
2022-11-24T16:20:49.937Z,7.01
2022-11-24T16:21:49.913Z,7.04
2022-11-24T16:22:49.890Z,6.99
2022-11-24T16:23:49.883Z,6.97
2022-11-24T16:24:49.904Z,6.91
2022-11-24T16:25:49.855Z,6.86
2022-11-24T16:26:49.860Z,6.83
2022-11-24T16:27:49.856Z,6.80
2022-11-24T16:28:49.836Z,6.79
2022-11-24T16:29:49.804Z,6.77
2022-11-24T16:30:49.815Z,6.77
2022-11-24T16:31:49.945Z,6.77
2022-11-24T16:32:49.769Z,6.72
2022-11-24T16:33:49.788Z,6.69
2022-11-24T16:34:49.757Z,6.68
2022-11-24T16:35:49.717Z,6.66
2022-11-24T16:36:49.734Z,6.62
2022-11-24T16:37:49.708Z,6.62
2022-11-24T16:38:49.743Z,6.59
2022-11-24T16:39:50.345Z,6.59
2022-11-24T16:40:49.694Z,6.59
2022-11-24T16:41:49.641Z,6.53
2022-11-24T16:42:49.629Z,6.50
2022-11-24T16:43:49.646Z,6.47
2022-11-24T16:44:49.616Z,6.50
2022-11-24T16:45:49.604Z,6.46
2022-11-24T16:46:49.575Z,6.44
2022-11-24T16:47:49.556Z,6.46
2022-11-24T16:48:49.568Z,6.41
2022-11-24T16:49:49.573Z,6.40
2022-11-24T16:50:49.540Z,6.35
2022-11-24T16:51:49.496Z,6.33
2022-11-24T16:52:49.491Z,6.32
2022-11-24T16:53:49.477Z,6.30
2022-11-24T16:54:49.497Z,6.28
2022-11-24T16:55:49.474Z,6.28
2022-11-24T16:56:49.462Z,6.28
2022-11-24T16:57:49.415Z,6.22
2022-11-24T16:58:49.429Z,6.25
2022-11-24T16:59:49.429Z,6.19
2022-11-24T17:00:49.402Z,6.21
2022-11-24T17:01:49.482Z,6.22
2022-11-24T17:02:49.454Z,6.21
2022-11-24T17:03:49.340Z,6.22
2022-11-24T17:04:49.448Z,6.22
2022-11-24T17:05:49.334Z,6.22
2022-11-24T17:06:49.305Z,6.26
2022-11-24T17:07:50.791Z,6.25
2022-11-24T17:08:49.281Z,6.22
2022-11-24T17:09:49.279Z,6.19
2022-11-24T17:10:49.254Z,6.19
2022-11-24T17:11:49.246Z,6.19
2022-11-24T17:12:49.241Z,6.21
2022-11-24T17:13:50.459Z,6.21
2022-11-24T17:15:16.475Z,6.21
2022-11-24T17:15:54.005Z,6.22
2022-11-24T17:16:49.308Z,6.21
2022-11-24T17:18:16.162Z,6.19
2022-11-24T17:18:49.158Z,6.19
2022-11-24T17:19:49.142Z,6.19
2022-11-24T17:20:49.129Z,6.19
2022-11-24T17:21:49.108Z,6.19
2022-11-24T17:22:49.098Z,6.19
2022-11-24T17:23:49.143Z,6.14
2022-11-24T17:24:49.093Z,6.11
2022-11-24T17:25:49.054Z,6.10